Time;durP1;ratioP1;P1;durP2;ratioP2;P2;SDS_P1;SDS_P2;PMS_P1;PMS_P2;Temp;Humidity;BMP_temperature;BMP_pressure;BME280_temperature;BME280_humidity;BME280_pressure;Samples;Min_cycle;Max_cycle;Signal;HPM_P1;HPM_P2
2024/02/25 00:00:03;;;;;;;5.43;2.22;;;;;;;6.36;100.00;99908.38;5077451;28;20131;-67
2024/02/25 00:02:58;;;;;;;5.65;2.50;;;;;;;6.36;100.00;99903.75;5097367;28;20048;-67
2024/02/25 00:05:46;;;;;;;4.97;2.35;;;;;;;6.33;100.00;99896.19;5077108;28;20511;-67
2024/02/25 00:08:34;;;;;;;4.53;1.92;;;;;;;6.31;100.00;99905.63;5085602;28;20047;-67
2024/02/25 00:11:22;;;;;;;3.30;1.83;;;;;;;6.28;100.00;99906.16;5114847;27;20054;-67
2024/02/25 00:14:11;;;;;;;5.13;2.10;;;;;;;6.29;100.00;99902.38;5090033;27;20039;-67
2024/02/25 00:16:59;;;;;;;3.95;1.98;;;;;;;6.27;100.00;99905.34;5075484;28;20590;-68
2024/02/25 00:19:47;;;;;;;4.07;1.98;;;;;;;6.28;100.00;99904.28;5107504;28;20042;-67
2024/02/25 00:22:35;;;;;;;3.65;1.77;;;;;;;6.26;100.00;99895.59;5095982;28;20040;-68
2024/02/25 00:25:23;;;;;;;4.38;2.05;;;;;;;6.26;100.00;99898.31;5096637;28;20050;-66
2024/02/25 00:28:11;;;;;;;4.18;2.22;;;;;;;6.27;100.00;99897.22;5111403;28;20081;-67
2024/02/25 00:30:59;;;;;;;3.83;1.95;;;;;;;6.31;100.00;99898.31;5096171;28;20122;-67
2024/02/25 00:33:47;;;;;;;6.18;2.30;;;;;;;6.34;100.00;99903.22;5110743;28;20050;-67
2024/02/25 00:36:35;;;;;;;4.57;2.30;;;;;;;6.33;100.00;99898.88;5111758;28;20044;-66
2024/02/25 00:39:23;;;;;;;3.65;2.25;;;;;;;6.46;100.00;99891.38;5112350;28;20113;-67
2024/02/25 00:42:11;;;;;;;3.28;1.77;;;;;;;6.49;100.00;99901.66;5100122;28;20505;-68
2024/02/25 00:44:59;;;;;;;4.07;2.10;;;;;;;6.46;100.00;99899.47;5132404;27;20039;-67
2024/02/25 00:47:51;;;;;;;4.18;2.00;;;;;;;6.56;100.00;99900.34;5109007;27;20168;-67
2024/02/25 00:50:39;;;;;;;2.70;1.75;;;;;;;6.53;100.00;99897.34;5120585;27;20480;-67
2024/02/25 00:53:27;;;;;;;3.70;2.10;;;;;;;6.51;100.00;99904.91;5131778;27;20099;-65
2024/02/25 00:56:15;;;;;;;4.13;1.85;;;;;;;6.47;100.00;99910.06;5108602;28;20050;-68
2024/02/25 00:59:03;;;;;;;3.97;2.00;;;;;;;6.52;100.00;99906.56;5124005;28;20046;-67
2024/02/25 01:01:52;;;;;;;3.60;1.77;;;;;;;6.53;100.00;99905.47;5129988;28;20047;-65
2024/02/25 01:04:40;;;;;;;4.15;2.25;;;;;;;6.56;100.00;99902.22;5131105;28;20027;-63
2024/02/25 01:07:27;;;;;;;3.22;1.88;;;;;;;6.66;100.00;99907.69;5134923;28;20039;-65
2024/02/25 01:10:15;;;;;;;5.30;2.10;;;;;;;6.69;100.00;99906.38;5126608;28;20040;-68
2024/02/25 01:13:03;;;;;;;4.32;1.95;;;;;;;6.58;100.00;99910.91;5107176;27;20544;-67
2024/02/25 01:15:54;;;;;;;3.05;2.10;;;;;;;6.55;100.00;99903.31;5115369;28;20172;-67
2024/02/25 01:18:42;;;;;;;4.45;2.10;;;;;;;6.53;100.00;99905.47;5115132;28;20529;-67
2024/02/25 01:21:30;;;;;;;3.72;2.08;;;;;;;6.54;100.00;99898.97;5114148;28;20371;-67
2024/02/25 01:24:18;;;;;;;3.85;1.90;;;;;;;6.54;100.00;99898.97;5093824;28;20418;-67
2024/02/25 01:27:06;;;;;;;3.22;2.00;;;;;;;6.54;100.00;99893.56;5100163;28;20390;-68
2024/02/25 01:29:54;;;;;;;1.65;1.52;;;;;;;6.59;100.00;99891.72;5114670;28;20048;-67
2024/02/25 01:32:43;;;;;;;3.78;1.95;;;;;;;6.60;100.00;99892.50;5115313;27;20066;-66
2024/02/25 01:35:31;;;;;;;2.42;1.88;;;;;;;6.55;100.00;99889.78;5128382;27;20129;-67
2024/02/25 01:38:19;;;;;;;2.00;1.75;;;;;;;6.55;100.00;99897.91;5134980;27;20039;-68
2024/02/25 01:41:07;;;;;;;3.28;1.75;;;;;;;6.50;100.00;99893.28;5122623;27;20244;-66
2024/02/25 01:43:55;;;;;;;3.00;1.70;;;;;;;6.51;100.00;99885.97;5113435;28;20031;-67
2024/02/25 01:46:45;;;;;;;2.85;1.65;;;;;;;6.54;100.00;99888.16;5100332;28;20040;-67
2024/02/25 01:49:33;;;;;;;2.20;1.40;;;;;;;6.52;100.00;99890.31;5114071;28;20043;-68
2024/02/25 01:52:22;;;;;;;2.60;1.73;;;;;;;6.52;100.00;99890.31;5081475;28;20388;-67
2024/02/25 01:55:10;;;;;;;4.05;1.83;;;;;;;6.50;100.00;99887.06;5065296;28;20131;-67
2024/02/25 01:58:00;;;;;;;3.50;1.80;;;;;;;6.49;100.00;99883.53;5079176;28;20476;-67
2024/02/25 02:00:49;;;;;;;2.00;1.60;;;;;;;6.49;100.00;99886.22;5107087;28;20048;-68
2024/02/25 02:03:37;;;;;;;2.28;1.80;;;;;;;6.53;100.00;99881.13;5078657;28;20044;-67
2024/02/25 02:06:26;;;;;;;1.63;1.20;;;;;;;6.51;100.00;99883.28;5093707;28;20040;-68
2024/02/25 02:09:15;;;;;;;3.33;1.52;;;;;;;6.52;100.00;99874.09;5071915;28;20035;-68
2024/02/25 02:12:03;;;;;;;3.88;1.48;;;;;;;6.50;100.00;99876.25;5080506;28;20055;-68
2024/02/25 02:14:51;;;;;;;2.30;1.40;;;;;;;6.55;100.00;99873.56;5088672;28;20047;-68
2024/02/25 02:17:41;;;;;;;3.00;1.60;;;;;;;6.58;100.00;99868.41;5099696;28;20483;-68
2024/02/25 02:20:30;;;;;;;3.60;1.30;;;;;;;6.61;100.00;99873.31;5113483;28;20047;-67
2024/02/25 02:23:19;;;;;;;3.85;1.60;;;;;;;6.63;100.00;99869.50;5114475;27;20493;-67
2024/02/25 02:26:06;;;;;;;2.13;1.45;;;;;;;6.56;100.00;99875.16;5113687;28;20052;-67
2024/02/25 02:28:55;;;;;;;2.28;1.52;;;;;;;6.61;100.00;99872.47;5114296;28;20057;-68
2024/02/25 02:31:43;;;;;;;1.88;1.38;;;;;;;6.62;100.00;99863.28;5100138;28;20085;-68
2024/02/25 02:34:31;;;;;;;3.65;2.08;;;;;;;6.73;100.00;99870.34;5112953;28;20136;-68
2024/02/25 02:37:19;;;;;;;2.78;1.75;;;;;;;6.73;100.00;99867.66;5099286;28;20044;-68
2024/02/25 02:40:08;;;;;;;1.35;1.25;;;;;;;6.63;100.00;99873.03;5112479;28;20487;-67
2024/02/25 02:42:57;;;;;;;3.38;1.63;;;;;;;6.63;100.00;99874.94;5104673;28;20043;-67
2024/02/25 02:45:47;;;;;;;2.15;1.20;;;;;;;6.58;100.00;99878.44;5113111;28;20137;-67
2024/02/25 02:48:35;;;;;;;2.08;1.45;;;;;;;6.60;100.00;99876.28;5086666;28;20040;-67
2024/02/25 02:51:24;;;;;;;2.85;1.20;;;;;;;6.59;100.00;99870.06;5064137;28;20047;-67
2024/02/25 02:54:12;;;;;;;2.17;1.20;;;;;;;6.63;100.00;99870.31;5092844;28;20130;-67
2024/02/25 02:56:59;;;;;;;2.50;1.70;;;;;;;6.67;100.00;99870.63;5093286;28;20048;-67
2024/02/25 02:59:48;;;;;;;1.48;1.15;;;;;;;6.62;100.00;99874.13;5112133;28;20498;-68
2024/02/25 03:02:36;;;;;;;1.33;1.23;;;;;;;6.63;100.00;99872.22;5098150;28;20391;-67
2024/02/25 03:05:24;;;;;;;0.93;0.93;;;;;;;6.58;100.00;99875.72;5085372;27;20040;-68
2024/02/25 03:08:12;;;;;;;1.35;1.25;;;;;;;6.58;100.00;99868.41;5096828;28;20105;-68
2024/02/25 03:11:00;;;;;;;2.22;1.23;;;;;;;6.61;100.00;99872.47;5112841;27;20501;-66
2024/02/25 03:13:48;;;;;;;4.53;1.60;;;;;;;6.63;100.00;99866.81;5118558;27;20039;-67
2024/02/25 03:16:39;;;;;;;2.47;1.55;;;;;;;6.61;100.00;99867.06;5134057;27;20038;-66
2024/02/25 03:19:27;;;;;;;2.65;1.50;;;;;;;6.70;100.00;99862.78;5121024;27;20043;-67
2024/02/25 03:22:15;;;;;;;3.22;1.58;;;;;;;6.63;100.00;99870.31;5109288;27;20415;-67
2024/02/25 03:25:08;;;;;;;1.92;1.50;;;;;;;6.67;100.00;99871.44;5133674;27;20043;-68
2024/02/25 03:27:56;;;;;;;1.10;1.10;;;;;;;6.61;100.00;99872.47;5128967;27;20192;-68
2024/02/25 03:30:44;;;;;;;1.98;1.42;;;;;;;6.57;100.00;99871.41;5096463;28;20031;-67
2024/02/25 03:33:32;;;;;;;1.83;1.35;;;;;;;6.63;100.00;99870.31;5100831;27;20172;-68
2024/02/25 03:36:20;;;;;;;2.45;1.50;;;;;;;6.67;100.00;99860.59;5133114;27;20126;-68
2024/02/25 03:39:08;;;;;;;3.92;1.63;;;;;;;6.66;100.00;99869.78;5102443;28;20657;-67
2024/02/25 03:41:56;;;;;;;1.58;1.27;;;;;;;6.66;100.00;99869.78;5098018;28;20035;-68
2024/02/25 03:44:44;;;;;;;2.22;0.90;;;;;;;6.62;100.00;99868.72;5111904;28;20132;-68
2024/02/25 03:47:32;;;;;;;1.45;1.35;;;;;;;6.59;100.00;99870.06;5094682;28;20052;-67
2024/02/25 03:50:20;;;;;;;3.63;1.52;;;;;;;6.67;100.00;99871.44;5065369;28;20040;-68
2024/02/25 03:53:08;;;;;;;1.67;1.42;;;;;;;6.73;100.00;99869.53;5064378;28;20044;-68
2024/02/25 03:55:56;;;;;;;1.25;1.15;;;;;;;6.60;100.00;99865.44;5093991;28;20184;-67
2024/02/25 03:58:44;;;;;;;1.05;0.95;;;;;;;6.58;100.00;99867.59;5097246;28;20042;-67
2024/02/25 04:01:32;;;;;;;1.95;1.13;;;;;;;6.59;100.00;99869.22;5118883;28;20039;-67
2024/02/25 04:04:20;;;;;;;3.03;1.08;;;;;;;6.58;100.00;99876.53;5099619;28;20112;-67
2024/02/25 04:07:08;;;;;;;1.90;1.33;;;;;;;6.55;100.00;99874.34;5084490;28;20039;-68
2024/02/25 04:09:56;;;;;;;1.45;1.13;;;;;;;6.59;100.00;99869.22;5097875;28;20157;-68
2024/02/25 04:12:44;;;;;;;1.77;1.20;;;;;;;6.64;100.00;99871.97;5111774;28;20046;-68
2024/02/25 04:15:32;;;;;;;1.60;1.15;;;;;;;6.56;100.00;99869.75;5070438;28;20109;-68
2024/02/25 04:18:20;;;;;;;0.93;0.88;;;;;;;6.55;100.00;99865.44;5112933;28;20046;-68
2024/02/25 04:21:09;;;;;;;1.33;1.13;;;;;;;6.53;100.00;99871.09;5098688;28;20044;-68
2024/02/25 04:23:57;;;;;;;2.45;1.20;;;;;;;6.50;100.00;99873.53;5084460;28;20049;-68
2024/02/25 04:26:47;;;;;;;2.42;1.60;;;;;;;6.54;100.00;99877.31;5070047;28;20044;-68
2024/02/25 04:29:37;;;;;;;2.55;1.10;;;;;;;6.53;100.00;99881.13;5099238;28;20056;-68
2024/02/25 04:32:25;;;;;;;1.80;1.23;;;;;;;6.57;100.00;99884.94;5090284;28;20051;-68
2024/02/25 04:35:14;;;;;;;5.80;1.30;;;;;;;6.59;100.00;99880.03;5064160;28;20093;-68
2024/02/25 04:38:03;;;;;;;1.88;1.10;;;;;;;6.59;100.00;99880.03;5103895;28;20472;-68
2024/02/25 04:40:53;;;;;;;1.92;1.15;;;;;;;6.56;100.00;99877.88;5096853;28;20046;-67
2024/02/25 04:43:41;;;;;;;1.00;1.00;;;;;;;6.53;100.00;99881.13;5115408;28;20091;-67
2024/02/25 04:46:29;;;;;;;1.55;1.08;;;;;;;6.51;100.00;99875.16;5116934;28;20043;-67
2024/02/25 04:49:17;;;;;;;1.13;1.08;;;;;;;6.44;100.00;99877.28;5109748;28;20066;-67
2024/02/25 04:52:09;;;;;;;1.77;1.40;;;;;;;6.43;100.00;99875.66;5078004;28;20067;-67
2024/02/25 04:54:57;;;;;;;1.92;1.27;;;;;;;6.43;100.00;99881.09;5063673;28;20059;-68
2024/02/25 04:57:45;;;;;;;2.83;1.23;;;;;;;6.43;100.00;99881.09;5101081;28;20063;-68
2024/02/25 05:00:33;;;;;;;1.98;1.10;;;;;;;6.48;100.00;99883.81;5096824;28;20040;-68
2024/02/25 05:03:21;;;;;;;1.92;1.27;;;;;;;6.45;100.00;99884.34;5111894;28;20124;-67
2024/02/25 05:06:09;;;;;;;1.08;1.05;;;;;;;6.47;100.00;99876.75;5102746;28;20116;-65
2024/02/25 05:08:57;;;;;;;2.35;1.20;;;;;;;6.47;100.00;99876.75;5123276;28;20044;-63
2024/02/25 05:11:45;;;;;;;3.08;1.23;;;;;;;6.44;100.00;99885.41;5141643;28;20031;-66
2024/02/25 05:14:33;;;;;;;1.38;1.27;;;;;;;6.42;100.00;99884.84;5133305;28;20042;-65
2024/02/25 05:17:21;;;;;;;1.35;1.27;;;;;;;6.42;100.00;99885.66;5143746;28;20059;-61
2024/02/25 05:20:10;;;;;;;2.35;1.33;;;;;;;6.42;100.00;99890.25;5132321;28;20112;-62
2024/02/25 05:22:57;;;;;;;1.45;1.35;;;;;;;6.38;100.00;99888.09;5115725;28;20059;-67
2024/02/25 05:25:46;;;;;;;2.22;1.55;;;;;;;6.38;100.00;99892.69;5115432;28;20043;-67
2024/02/25 05:28:34;;;;;;;1.23;1.13;;;;;;;6.39;100.00;99895.13;5099386;28;20051;-65
2024/02/25 05:31:22;;;;;;;1.83;1.48;;;;;;;6.37;100.00;99891.88;5113544;28;20463;-67
2024/02/25 05:34:10;;;;;;;1.40;1.30;;;;;;;6.38;100.00;99898.91;5101517;28;20166;-67
2024/02/25 05:36:58;;;;;;;1.52;1.42;;;;;;;6.36;100.00;99898.34;5084967;27;20524;-67
2024/02/25 05:39:46;;;;;;;1.65;1.10;;;;;;;6.37;100.00;99904.56;5099669;28;20061;-68
2024/02/25 05:42:35;;;;;;;0.95;0.95;;;;;;;6.39;100.00;99895.13;5115222;28;20122;-68
2024/02/25 05:45:23;;;;;;;2.28;1.40;;;;;;;6.38;100.00;99893.50;5114812;28;20112;-68
2024/02/25 05:48:11;;;;;;;1.90;1.33;;;;;;;6.40;100.00;99893.25;5088913;27;20487;-68
2024/02/25 05:50:59;;;;;;;1.30;1.05;;;;;;;6.39;100.00;99895.13;5114931;28;20036;-67
2024/02/25 05:53:48;;;;;;;2.35;1.42;;;;;;;6.40;100.00;99902.16;5115026;28;20039;-68
2024/02/25 05:56:36;;;;;;;1.30;1.20;;;;;;;6.38;100.00;99904.31;5114550;28;20498;-68
2024/02/25 05:59:24;;;;;;;2.20;1.27;;;;;;;6.38;100.00;99903.50;5117607;27;20050;-68
2024/02/25 06:02:12;;;;;;;2.78;1.58;;;;;;;6.39;100.00;99903.22;5079064;28;20085;-67
2024/02/25 06:05:00;;;;;;;1.92;1.60;;;;;;;6.36;100.00;99913.78;5087373;28;20036;-66
2024/02/25 06:07:48;;;;;;;2.92;1.88;;;;;;;6.26;100.00;99914.53;5099470;28;20484;-68
2024/02/25 06:10:36;;;;;;;1.90;1.63;;;;;;;6.18;100.00;99921.25;5099365;28;20548;-68
2024/02/25 06:13:25;;;;;;;4.40;2.15;;;;;;;6.15;100.00;99918.25;5114568;28;20044;-67
2024/02/25 06:16:13;;;;;;;2.00;1.40;;;;;;;6.19;100.00;99922.88;5113672;28;20046;-67
2024/02/25 06:19:01;;;;;;;3.60;1.45;;;;;;;6.28;100.00;99920.50;5114960;28;20054;-68
2024/02/25 06:21:49;;;;;;;1.60;1.30;;;;;;;6.33;100.00;99927.84;5085745;27;20395;-68
2024/02/25 06:24:37;;;;;;;1.80;1.50;;;;;;;6.37;100.00;99927.06;5094415;27;20044;-69
2024/02/25 06:27:25;;;;;;;3.38;1.83;;;;;;;6.37;100.00;99937.88;5082584;28;20036;-69
2024/02/25 06:30:14;;;;;;;1.83;1.25;;;;;;;6.38;100.00;99928.66;5086351;28;20196;-68
2024/02/25 06:33:04;;;;;;;1.38;1.27;;;;;;;6.50;100.00;99927.66;5084922;28;20488;-69
2024/02/25 06:35:53;;;;;;;2.58;1.85;;;;;;;6.45;100.00;99936.56;5097621;28;20035;-69
2024/02/25 06:38:41;;;;;;;4.68;2.10;;;;;;;6.36;100.00;99921.91;5098676;28;20035;-68
2024/02/25 06:41:29;;;;;;;3.30;2.05;;;;;;;6.25;100.00;99939.94;5086428;28;20044;-67
2024/02/25 06:44:17;;;;;;;2.95;2.05;;;;;;;6.17;100.00;99935.03;5107873;28;20160;-67
2024/02/25 06:47:05;;;;;;;3.92;2.00;;;;;;;6.12;100.00;99938.50;5113193;28;20492;-68
2024/02/25 06:49:54;;;;;;;4.57;1.90;;;;;;;6.14;100.00;99938.25;5114021;28;20273;-67
2024/02/25 06:52:42;;;;;;;5.18;2.17;;;;;;;6.16;100.00;99942.34;5113081;28;20116;-68
2024/02/25 06:55:31;;;;;;;3.20;2.00;;;;;;;6.24;100.00;99938.31;5071546;28;20034;-67
2024/02/25 06:58:20;;;;;;;2.38;2.00;;;;;;;6.28;100.00;99938.63;5117883;27;20505;-67
2024/02/25 07:01:08;;;;;;;4.35;2.10;;;;;;;6.30;100.00;99948.13;5113662;28;20476;-68
2024/02/25 07:03:56;;;;;;;3.05;2.20;;;;;;;6.33;100.00;99947.59;5088346;28;20040;-68
2024/02/25 07:06:44;;;;;;;3.45;2.38;;;;;;;6.36;100.00;99952.47;5114755;28;20071;-68
2024/02/25 07:09:32;;;;;;;2.97;2.00;;;;;;;6.38;100.00;99950.31;5098185;28;20085;-68
2024/02/25 07:12:21;;;;;;;5.70;2.20;;;;;;;6.36;100.00;99954.34;5097964;28;20053;-67
2024/02/25 07:15:09;;;;;;;4.22;2.20;;;;;;;6.37;100.00;99956.81;5098145;28;20392;-68
2024/02/25 07:17:57;;;;;;;2.92;1.77;;;;;;;6.37;100.00;99959.53;4387321;28;10000625;-67
2024/02/25 07:20:45;;;;;;;2.80;1.60;;;;;;;6.38;100.00;99954.91;5089279;28;20416;-68
2024/02/25 07:23:40;;;;;;;5.30;2.22;;;;;;;6.39;100.00;99962.75;5103187;28;20573;-68
2024/02/25 07:26:28;;;;;;;6.78;2.78;;;;;;;6.43;100.00;99960.34;5103152;27;20032;-69
2024/02/25 07:29:16;;;;;;;2.90;2.00;;;;;;;6.42;100.00;99960.59;5082368;28;20377;-68
2024/02/25 07:32:04;;;;;;;5.07;2.38;;;;;;;6.46;100.00;99967.94;5108802;28;20061;-67
2024/02/25 07:34:54;;;;;;;9.50;3.17;;;;;;;6.50;100.00;99962.84;5080367;28;20035;-67
2024/02/25 07:37:42;;;;;;;5.28;2.30;;;;;;;6.46;100.00;99972.53;5096005;27;20054;-68
2024/02/25 07:40:31;;;;;;;3.92;1.80;;;;;;;6.44;100.00;99970.09;5094693;27;20126;-66
2024/02/25 07:43:19;;;;;;;4.57;2.25;;;;;;;6.45;100.00;99970.94;5102178;27;20034;-68
2024/02/25 07:46:07;;;;;;;5.47;2.30;;;;;;;6.43;100.00;99968.47;5093228;28;20131;-67
2024/02/25 07:48:56;;;;;;;5.68;2.35;;;;;;;6.54;100.00;99972.03;5109437;28;20149;-67
2024/02/25 07:51:44;;;;;;;2.80;2.08;;;;;;;6.47;100.00;99979.56;5094347;28;20070;-66
2024/02/25 07:54:32;;;;;;;4.30;2.20;;;;;;;6.34;100.00;99976.25;5106317;27;20039;-67
2024/02/25 07:57:20;;;;;;;4.43;2.28;;;;;;;6.28;100.00;99985.44;5094676;28;20044;-67
2024/02/25 08:00:09;;;;;;;5.15;2.30;;;;;;;6.25;100.00;99983.22;5067143;28;20047;-71
2024/02/25 08:02:57;;;;;;;3.88;2.45;;;;;;;6.26;100.00;99979.47;5110351;28;20120;-67
2024/02/25 08:05:46;;;;;;;3.97;2.30;;;;;;;6.26;100.00;99984.88;5108680;27;20046;-68
2024/02/25 08:08:35;;;;;;;6.70;2.63;;;;;;;6.28;100.00;99988.13;5079835;28;20120;-67
2024/02/25 08:11:23;;;;;;;34.80;9.00;;;;;;;6.34;100.00;99987.06;5110866;27;20054;-67
2024/02/25 08:14:11;;;;;;;29.35;9.27;;;;;;;6.40;100.00;99983.34;5091788;28;20484;-67
2024/02/25 08:16:59;;;;;;;19.80;6.47;;;;;;;6.46;100.00;99986.88;5128310;27;20035;-68
2024/02/25 08:19:48;;;;;;;23.58;6.80;;;;;;;6.50;100.00;99984.47;5090591;28;20043;-67
2024/02/25 08:22:38;;;;;;;43.25;10.75;;;;;;;6.57;100.00;99994.00;5124850;27;20066;-68
2024/02/25 08:25:26;;;;;;;27.77;7.95;;;;;;;6.59;100.00;99988.31;5094696;28;20074;-67
2024/02/25 08:28:14;;;;;;;17.30;5.68;;;;;;;6.63;100.00;99978.59;5092655;28;20179;-67
2024/02/25 08:31:03;;;;;;;31.75;8.98;;;;;;;6.74;100.00;99988.41;5103859;28;20394;-66
2024/02/25 08:33:51;;;;;;;13.02;4.03;;;;;;;6.76;100.00;99988.97;5096632;28;20054;-68
2024/02/25 08:36:39;;;;;;;8.98;3.88;;;;;;;6.78;100.00;99997.63;5097010;28;20077;-68
2024/02/25 08:39:27;;;;;;;6.30;2.67;;;;;;;6.77;100.00;99990.56;5112870;28;20036;-68
2024/02/25 08:42:16;;;;;;;9.52;3.95;;;;;;;6.83;100.00;99999.53;5112066;28;20101;-68
2024/02/25 08:45:05;;;;;;;6.68;2.92;;;;;;;6.86;100.00;99993.59;5077417;28;20056;-67
2024/02/25 08:47:54;;;;;;;13.57;4.65;;;;;;;6.90;100.00;100002.00;5076039;28;20169;-67
2024/02/25 08:50:42;;;;;;;15.40;5.10;;;;;;;6.93;100.00;99996.09;5091407;28;20040;-67
2024/02/25 08:53:30;;;;;;;11.93;4.60;;;;;;;6.91;100.00;100000.94;5092539;28;20048;-68
2024/02/25 08:56:18;;;;;;;8.38;3.13;;;;;;;6.90;100.00;99991.16;5098169;28;20050;-68
2024/02/25 08:59:06;;;;;;;5.43;2.60;;;;;;;6.85;100.00;100001.97;5097980;28;20129;-68
2024/02/25 09:01:54;;;;;;;6.18;2.85;;;;;;;6.79;100.00;100009.28;5112113;28;20599;-68
2024/02/25 09:04:42;;;;;;;8.27;3.35;;;;;;;6.78;100.00;100003.06;5097841;28;20518;-67
2024/02/25 09:07:31;;;;;;;16.88;5.35;;;;;;;6.89;100.00;100003.09;5077090;28;20040;-66
2024/02/25 09:10:19;;;;;;;18.73;5.75;;;;;;;7.07;100.00;100005.34;5095185;28;20051;-68
2024/02/25 09:13:08;;;;;;;14.10;5.35;;;;;;;7.11;100.00;100001.00;5080207;28;20041;-67
2024/02/25 09:15:56;;;;;;;8.70;3.45;;;;;;;7.00;100.00;100002.88;5095041;28;20525;-67
2024/02/25 09:18:44;;;;;;;7.15;3.08;;;;;;;6.99;100.00;100001.22;5099454;28;20418;-67
2024/02/25 09:21:32;;;;;;;5.45;2.60;;;;;;;6.94;100.00;100001.22;5125971;28;20043;-66
2024/02/25 09:24:20;;;;;;;7.00;3.20;;;;;;;6.96;100.00;99999.06;5135110;28;20094;-66
2024/02/25 09:27:08;;;;;;;7.50;3.13;;;;;;;7.02;100.00;99999.88;5121897;28;20032;-66
2024/02/25 09:29:56;;;;;;;9.07;3.63;;;;;;;7.07;100.00;99999.94;5107442;28;20055;-68
2024/02/25 09:32:44;;;;;;;16.38;5.55;;;;;;;7.10;100.00;99998.59;5097568;28;20178;-65
2024/02/25 09:35:32;;;;;;;11.43;3.88;;;;;;;7.18;100.00;100006.19;5137949;28;20044;-64
2024/02/25 09:38:22;;;;;;;10.70;3.85;;;;;;;7.14;100.00;99999.66;5121485;28;20054;-66
2024/02/25 09:41:10;;;;;;;4.50;2.70;;;;;;;7.02;100.00;100008.00;5118213;28;20516;-67
2024/02/25 09:43:59;;;;;;;6.97;2.75;;;;;;;7.00;100.00;100007.50;5102047;28;20068;-67
2024/02/25 09:46:48;;;;;;;10.00;3.50;;;;;;;6.99;100.00;100003.13;5114892;28;20059;-66
2024/02/25 09:49:36;;;;;;;8.45;3.30;;;;;;;7.07;100.00;99999.94;5114553;28;20157;-67
2024/02/25 09:52:25;;;;;;;18.70;5.88;;;;;;;7.27;100.00;100001.91;5117568;28;20040;-67
2024/02/25 09:55:13;;;;;;;17.02;5.82;;;;;;;7.34;100.00;100004.34;5116124;28;20051;-67
2024/02/25 09:58:01;;;;;;;18.98;5.45;;;;;;;7.55;100.00;100002.50;5110319;28;20067;-67
2024/02/25 10:00:49;;;;;;;8.65;3.72;;;;;;;7.43;100.00;99997.31;5121031;28;20053;-67
2024/02/25 10:03:42;;;;;;;5.15;2.75;;;;;;;7.25;100.00;99996.72;5127785;28;20408;-67
2024/02/25 10:06:37;;;;;;;11.98;3.75;;;;;;;7.21;100.00;99992.91;5127085;28;20048;-67
2024/02/25 10:09:32;;;;;;;15.55;4.43;;;;;;;7.23;100.00;99998.88;5116515;28;20110;-68
2024/02/25 10:12:21;;;;;;;8.10;3.42;;;;;;;7.18;100.00;99998.06;5114636;28;20052;-67
2024/02/25 10:15:10;;;;;;;10.25;3.92;;;;;;;7.26;100.00;100000.25;5100187;28;20054;-69
2024/02/25 10:17:58;;;;;;;9.73;4.05;;;;;;;7.26;100.00;99994.81;5094264;28;20408;-67
2024/02/25 10:20:47;;;;;;;8.93;3.45;;;;;;;7.30;100.00;99992.41;5067337;28;20048;-68
2024/02/25 10:23:36;;;;;;;9.35;3.25;;;;;;;7.31;100.00;99991.31;5098606;28;20406;-68
2024/02/25 10:26:25;;;;;;;9.30;4.35;;;;;;;7.32;100.00;99999.19;5086338;28;20078;-68
2024/02/25 10:29:15;;;;;;;10.32;3.97;;;;;;;7.42;100.00;99992.97;5114684;28;20058;-67
2024/02/25 10:32:03;;;;;;;6.57;3.15;;;;;;;7.37;100.00;99996.50;5100450;28;20070;-68
2024/02/25 10:34:52;;;;;;;8.07;3.50;;;;;;;7.35;100.00;99995.13;5117143;28;20043;-69
2024/02/25 10:37:40;;;;;;;8.07;3.53;;;;;;;7.55;100.00;99988.94;5086795;28;20073;-68
2024/02/25 10:40:28;;;;;;;7.78;3.25;;;;;;;7.56;100.00;99985.97;5115012;28;20043;-68
2024/02/25 10:43:17;;;;;;;11.13;3.97;;;;;;;7.69;100.00;99995.47;5101712;28;20043;-67
2024/02/25 10:46:29;;;;;;;6.80;3.10;;;;;;;7.68;100.00;99991.13;5100186;28;20043;-68
2024/02/25 10:49:17;;;;;;;6.85;2.97;;;;;;;7.68;100.00;99994.66;5094517;28;20069;-67
2024/02/25 10:52:06;;;;;;;10.68;3.90;;;;;;;7.82;100.00;99988.72;5064296;28;20508;-68
2024/02/25 10:54:57;;;;;;;9.57;3.38;;;;;;;7.91;100.00;99989.78;5075999;28;20522;-66
2024/02/25 10:57:45;;;;;;;7.70;3.03;;;;;;;7.81;100.00;99996.03;5065154;28;20113;-68
2024/02/25 11:00:35;;;;;;;4.65;2.42;;;;;;;7.65;100.00;99997.09;5081828;28;20040;-67
2024/02/25 11:03:23;;;;;;;9.25;3.80;;;;;;;7.76;100.00;99990.59;5086105;28;20130;-67
2024/02/25 11:06:29;;;;;;;5.50;2.42;;;;;;;7.68;100.00;99991.94;5085792;28;20415;-67
2024/02/25 11:09:18;;;;;;;7.90;3.30;;;;;;;7.83;100.00;99998.47;5098415;28;20040;-67
2024/02/25 11:12:33;;;;;;;8.30;3.58;;;;;;;7.82;100.00;100000.38;5113121;28;20036;-66
2024/02/25 11:15:27;;;;;;;7.65;3.28;;;;;;;7.81;100.00;99995.22;5114785;27;20517;-67
2024/02/25 11:18:25;;;;;;;9.98;3.20;;;;;;;7.77;100.00;100000.38;5113537;28;20566;-68
2024/02/25 11:21:19;;;;;;;5.82;2.70;;;;;;;7.68;100.00;100002.78;5099415;28;20047;-68
2024/02/25 11:24:12;;;;;;;7.82;2.65;;;;;;;7.65;100.00;99999.81;5085095;28;20054;-67
2024/02/25 11:27:01;;;;;;;6.07;2.28;;;;;;;7.59;100.00;99996.25;5097420;28;20048;-68
2024/02/25 11:30:13;;;;;;;6.00;2.50;;;;;;;7.63;100.00;99989.22;5111289;28;20051;-67
2024/02/25 11:33:01;;;;;;;9.85;3.75;;;;;;;7.87;100.00;99983.28;5098347;28;20454;-67
2024/02/25 11:35:50;;;;;;;8.93;3.10;;;;;;;7.92;100.00;99988.72;5097764;28;20054;-67
2024/02/25 11:38:41;;;;;;;5.60;2.53;;;;;;;7.94;100.00;99991.13;5110818;28;20051;-68
2024/02/25 11:41:29;;;;;;;6.10;2.33;;;;;;;7.89;100.00;99978.41;5112759;28;20060;-68
2024/02/25 11:44:17;;;;;;;3.95;2.45;;;;;;;7.88;100.00;99982.19;5097336;28;20066;-68
2024/02/25 11:47:07;;;;;;;4.90;2.40;;;;;;;7.92;100.00;99987.91;5097186;28;20507;-68
2024/02/25 11:49:58;;;;;;;5.60;2.30;;;;;;;7.96;100.00;99972.69;5076502;28;20521;-68
2024/02/25 11:53:00;;;;;;;8.02;3.50;;;;;;;8.14;100.00;99974.06;5077536;28;20182;-68
2024/02/25 11:55:48;;;;;;;7.43;2.75;;;;;;;8.06;100.00;99965.38;5091363;28;20403;-68
2024/02/25 11:58:36;;;;;;;10.88;4.45;;;;;;;8.38;100.00;99963.44;5063563;28;20494;-67
2024/02/25 12:01:24;;;;;;;6.20;2.70;;;;;;;8.32;100.00;99962.63;5079032;28;20048;-68
2024/02/25 12:04:14;;;;;;;8.95;3.17;;;;;;;8.35;100.00;99962.09;5085761;27;20161;-68
2024/02/25 12:07:04;;;;;;;9.68;3.72;;;;;;;8.44;100.00;99968.63;5094601;28;20048;-69
2024/02/25 12:09:52;;;;;;;8.57;3.35;;;;;;;8.38;100.00;99961.53;5097071;28;20040;-68
2024/02/25 12:12:40;;;;;;;7.38;3.45;;;;;;;8.39;100.00;99960.44;4394327;28;10000822;-67
2024/02/25 12:15:29;;;;;;;8.85;3.75;;;;;;;8.37;100.00;99962.66;5052108;28;20492;-66
2024/02/25 12:18:17;;;;;;;7.55;2.88;;;;;;;8.52;100.00;99967.25;5074657;28;20098;-66
2024/02/25 12:21:06;;;;;;;4.97;2.50;;;;;;;8.34;100.00;99955.03;5091523;28;20499;-67
2024/02/25 12:24:03;;;;;;;4.03;2.08;;;;;;;8.14;100.00;99957.78;5080291;28;20054;-67
2024/02/25 12:26:54;;;;;;;3.08;1.73;;;;;;;8.07;100.00;99953.44;5093723;28;20047;-67
2024/02/25 12:29:42;;;;;;;3.92;1.98;;;;;;;8.03;100.00;99957.81;5072474;28;20056;-67
2024/02/25 12:32:31;;;;;;;3.88;1.77;;;;;;;8.04;100.00;99948.56;5091090;28;20051;-66
2024/02/25 12:35:20;;;;;;;5.45;2.10;;;;;;;8.13;100.00;99950.72;5122491;28;20525;-67
2024/02/25 12:38:11;;;;;;;7.47;2.10;;;;;;;8.23;100.00;99945.31;5099828;28;20047;-67
2024/02/25 12:41:03;;;;;;;4.80;2.53;;;;;;;8.33;100.00;99939.84;5079692;28;20086;-67
2024/02/25 12:43:52;;;;;;;4.07;2.08;;;;;;;8.28;100.00;99942.56;5066563;28;20129;-67
2024/02/25 12:46:40;;;;;;;2.97;2.03;;;;;;;8.18;100.00;99940.69;5091775;27;20075;-68
2024/02/25 12:49:28;;;;;;;8.23;2.53;;;;;;;8.15;100.00;99937.69;5076365;28;20518;-68
2024/02/25 12:52:18;;;;;;;4.38;2.38;;;;;;;8.15;100.00;99937.69;5084300;28;20051;-67
2024/02/25 12:55:07;;;;;;;6.90;2.50;;;;;;;8.22;100.00;99928.19;5091704;28;20048;-67
2024/02/25 12:57:58;;;;;;;7.57;2.53;;;;;;;8.29;100.00;99927.91;5120044;27;20043;-67
2024/02/25 13:00:46;;;;;;;5.50;2.03;;;;;;;8.30;100.00;99929.53;5079365;28;20101;-66
2024/02/25 13:03:35;;;;;;;4.07;1.92;;;;;;;8.32;100.00;99928.19;5121417;27;20047;-67
2024/02/25 13:06:23;;;;;;;5.63;2.63;;;;;;;8.43;100.00;99928.19;5098109;28;20427;-67
2024/02/25 13:09:14;;;;;;;6.88;2.72;;;;;;;8.60;100.00;99917.81;5082927;28;20043;-68
2024/02/25 13:12:02;;;;;;;6.20;2.58;;;;;;;8.61;100.00;99908.59;5063999;28;20032;-67